< < Back
Terminal Aerodrome Forecast


Current Version              Previous Versions:   1  2  3  4  5  6  7  8  9  

Terminal Aerodrome Forecast

839
FTUS44 KMOB 242336
TAFMOB
TAF
KMOB 242336Z 2500/2524 VRB02KT P6SM FEW050 SCT250
     FM251400 34005KT P6SM FEW050
     FM252000 17005KT P6SM SCT050 SCT250=

Latest METAR

674
SAUS80 KWBC 250900 RRA
MTRMOB
METAR KMOB 250856Z AUTO 30003KT 10SM CLR 23/21 A3002 RMK AO2 SLP163
T02330211 53003


USA.gov is the U.S. government's official web portal to all federal, state and local government web resources and services.